sensor_id;sensor_type;location;lat;lon;timestamp;P1;durP1;ratioP1;P2;durP2;ratioP2
41219;SDS011;26951;47.338;9.196;2023-03-20T00:02:42;1.00;;;0.90;;
41219;SDS011;26951;47.338;9.196;2023-03-20T00:05:27;0.60;;;0.60;;
41219;SDS011;26951;47.338;9.196;2023-03-20T00:08:13;0.80;;;0.80;;
41219;SDS011;26951;47.338;9.196;2023-03-20T00:10:58;0.68;;;0.68;;
41219;SDS011;26951;47.338;9.196;2023-03-20T00:13:42;0.70;;;0.70;;
41219;SDS011;26951;47.338;9.196;2023-03-20T00:16:31;0.70;;;0.70;;
41219;SDS011;26951;47.338;9.196;2023-03-20T00:19:21;0.98;;;0.90;;
41219;SDS011;26951;47.338;9.196;2023-03-20T00:22:08;0.80;;;0.80;;
41219;SDS011;26951;47.338;9.196;2023-03-20T00:24:52;0.90;;;0.90;;
41219;SDS011;26951;47.338;9.196;2023-03-20T00:27:37;0.80;;;0.80;;
41219;SDS011;26951;47.338;9.196;2023-03-20T00:30:25;1.10;;;1.00;;
41219;SDS011;26951;47.338;9.196;2023-03-20T00:33:11;1.23;;;0.95;;
41219;SDS011;26951;47.338;9.196;2023-03-20T00:35:55;0.70;;;0.70;;
41219;SDS011;26951;47.338;9.196;2023-03-20T00:38:41;0.80;;;0.80;;
41219;SDS011;26951;47.338;9.196;2023-03-20T00:44:20;0.95;;;0.82;;
41219;SDS011;26951;47.338;9.196;2023-03-20T00:47:11;1.13;;;0.90;;
41219;SDS011;26951;47.338;9.196;2023-03-20T00:50:00;0.82;;;0.82;;
41219;SDS011;26951;47.338;9.196;2023-03-20T00:52:45;1.40;;;0.70;;
41219;SDS011;26951;47.338;9.196;2023-03-20T00:55:30;0.70;;;0.70;;
41219;SDS011;26951;47.338;9.196;2023-03-20T00:58:14;1.00;;;0.75;;
41219;SDS011;26951;47.338;9.196;2023-03-20T01:04:40;1.10;;;0.90;;
41219;SDS011;26951;47.338;9.196;2023-03-20T01:07:24;1.00;;;0.90;;
41219;SDS011;26951;47.338;9.196;2023-03-20T01:10:09;0.85;;;0.85;;
41219;SDS011;26951;47.338;9.196;2023-03-20T01:12:55;1.08;;;0.90;;
41219;SDS011;26951;47.338;9.196;2023-03-20T01:15:42;0.80;;;0.80;;
41219;SDS011;26951;47.338;9.196;2023-03-20T01:18:27;1.10;;;1.00;;
41219;SDS011;26951;47.338;9.196;2023-03-20T01:21:11;0.90;;;0.90;;
41219;SDS011;26951;47.338;9.196;2023-03-20T01:23:56;1.23;;;0.90;;
41219;SDS011;26951;47.338;9.196;2023-03-20T01:26:41;0.85;;;0.85;;
41219;SDS011;26951;47.338;9.196;2023-03-20T01:29:26;0.80;;;0.80;;
41219;SDS011;26951;47.338;9.196;2023-03-20T01:32:11;1.70;;;0.98;;
41219;SDS011;26951;47.338;9.196;2023-03-20T01:34:58;1.10;;;1.00;;
41219;SDS011;26951;47.338;9.196;2023-03-20T01:37:42;1.67;;;1.58;;
41219;SDS011;26951;47.338;9.196;2023-03-20T01:40:32;0.70;;;0.70;;
41219;SDS011;26951;47.338;9.196;2023-03-20T01:43:28;0.90;;;0.90;;
41219;SDS011;26951;47.338;9.196;2023-03-20T01:46:14;1.10;;;1.00;;
41219;SDS011;26951;47.338;9.196;2023-03-20T01:52:01;1.27;;;0.93;;
41219;SDS011;26951;47.338;9.196;2023-03-20T01:54:45;1.17;;;0.90;;
41219;SDS011;26951;47.338;9.196;2023-03-20T01:57:30;0.80;;;0.80;;
41219;SDS011;26951;47.338;9.196;2023-03-20T02:00:14;0.63;;;0.63;;
41219;SDS011;26951;47.338;9.196;2023-03-20T02:02:59;3.20;;;1.00;;
41219;SDS011;26951;47.338;9.196;2023-03-20T02:05:44;1.17;;;0.85;;
41219;SDS011;26951;47.338;9.196;2023-03-20T02:08:30;1.20;;;0.90;;
41219;SDS011;26951;47.338;9.196;2023-03-20T02:11:19;1.10;;;0.98;;
41219;SDS011;26951;47.338;9.196;2023-03-20T02:14:06;1.60;;;1.00;;
41219;SDS011;26951;47.338;9.196;2023-03-20T02:16:51;1.00;;;0.90;;
41219;SDS011;26951;47.338;9.196;2023-03-20T02:22:50;0.95;;;0.90;;
41219;SDS011;26951;47.338;9.196;2023-03-20T02:25:47;0.90;;;0.90;;
41219;SDS011;26951;47.338;9.196;2023-03-20T02:32:34;1.10;;;1.00;;
41219;SDS011;26951;47.338;9.196;2023-03-20T02:45:02;1.45;;;0.90;;
41219;SDS011;26951;47.338;9.196;2023-03-20T02:50:57;1.25;;;1.15;;
41219;SDS011;26951;47.338;9.196;2023-03-20T02:54:05;0.95;;;0.90;;
41219;SDS011;26951;47.338;9.196;2023-03-20T02:57:00;0.80;;;0.80;;
41219;SDS011;26951;47.338;9.196;2023-03-20T03:00:13;1.25;;;0.90;;
41219;SDS011;26951;47.338;9.196;2023-03-20T03:03:26;1.65;;;0.90;;
41219;SDS011;26951;47.338;9.196;2023-03-20T03:06:23;0.90;;;0.90;;
41219;SDS011;26951;47.338;9.196;2023-03-20T03:09:13;0.77;;;0.77;;
41219;SDS011;26951;47.338;9.196;2023-03-20T03:12:16;1.20;;;1.10;;
41219;SDS011;26951;47.338;9.196;2023-03-20T03:15:07;1.10;;;1.00;;
41219;SDS011;26951;47.338;9.196;2023-03-20T03:17:59;1.60;;;1.50;;
41219;SDS011;26951;47.338;9.196;2023-03-20T03:20:45;1.40;;;1.10;;
41219;SDS011;26951;47.338;9.196;2023-03-20T03:23:35;1.40;;;1.30;;
41219;SDS011;26951;47.338;9.196;2023-03-20T03:26:29;1.40;;;1.10;;
41219;SDS011;26951;47.338;9.196;2023-03-20T03:29:17;1.10;;;1.00;;
41219;SDS011;26951;47.338;9.196;2023-03-20T03:32:02;3.20;;;1.30;;
41219;SDS011;26951;47.338;9.196;2023-03-20T03:34:48;1.38;;;1.00;;
41219;SDS011;26951;47.338;9.196;2023-03-20T03:40:43;1.35;;;1.25;;
41219;SDS011;26951;47.338;9.196;2023-03-20T03:43:45;1.77;;;1.33;;
41219;SDS011;26951;47.338;9.196;2023-03-20T03:46:45;1.45;;;1.23;;
41219;SDS011;26951;47.338;9.196;2023-03-20T03:49:39;2.28;;;1.50;;
41219;SDS011;26951;47.338;9.196;2023-03-20T03:52:27;1.20;;;1.10;;
41219;SDS011;26951;47.338;9.196;2023-03-20T03:55:13;1.70;;;1.60;;
41219;SDS011;26951;47.338;9.196;2023-03-20T03:58:13;1.60;;;1.10;;
41219;SDS011;26951;47.338;9.196;2023-03-20T04:03:53;2.75;;;1.30;;
41219;SDS011;26951;47.338;9.196;2023-03-20T04:06:40;1.95;;;1.35;;
41219;SDS011;26951;47.338;9.196;2023-03-20T04:09:25;1.48;;;1.38;;
41219;SDS011;26951;47.338;9.196;2023-03-20T04:12:29;2.67;;;1.42;;
41219;SDS011;26951;47.338;9.196;2023-03-20T04:15:15;1.65;;;1.40;;
41219;SDS011;26951;47.338;9.196;2023-03-20T04:17:59;1.33;;;1.23;;
41219;SDS011;26951;47.338;9.196;2023-03-20T04:20:44;1.58;;;1.48;;
41219;SDS011;26951;47.338;9.196;2023-03-20T04:23:29;1.90;;;1.50;;
41219;SDS011;26951;47.338;9.196;2023-03-20T04:26:13;1.60;;;1.50;;
41219;SDS011;26951;47.338;9.196;2023-03-20T04:28:58;1.50;;;1.40;;
41219;SDS011;26951;47.338;9.196;2023-03-20T04:31:42;2.03;;;1.63;;
41219;SDS011;26951;47.338;9.196;2023-03-20T04:34:26;1.88;;;1.67;;
41219;SDS011;26951;47.338;9.196;2023-03-20T04:37:10;2.30;;;1.70;;
41219;SDS011;26951;47.338;9.196;2023-03-20T04:39:54;2.05;;;1.70;;
41219;SDS011;26951;47.338;9.196;2023-03-20T04:42:38;1.70;;;1.60;;
41219;SDS011;26951;47.338;9.196;2023-03-20T04:45:22;1.63;;;1.50;;
41219;SDS011;26951;47.338;9.196;2023-03-20T04:48:07;2.22;;;1.92;;
41219;SDS011;26951;47.338;9.196;2023-03-20T04:50:51;1.92;;;1.83;;
41219;SDS011;26951;47.338;9.196;2023-03-20T04:53:36;2.40;;;2.10;;
41219;SDS011;26951;47.338;9.196;2023-03-20T04:56:21;2.28;;;2.08;;
41219;SDS011;26951;47.338;9.196;2023-03-20T04:59:05;2.70;;;2.08;;
41219;SDS011;26951;47.338;9.196;2023-03-20T05:01:49;4.15;;;3.65;;
41219;SDS011;26951;47.338;9.196;2023-03-20T05:04:34;4.50;;;4.03;;
41219;SDS011;26951;47.338;9.196;2023-03-20T05:07:18;4.07;;;3.67;;
41219;SDS011;26951;47.338;9.196;2023-03-20T05:10:03;4.30;;;3.65;;
41219;SDS011;26951;47.338;9.196;2023-03-20T05:12:48;4.50;;;4.10;;
41219;SDS011;26951;47.338;9.196;2023-03-20T05:15:33;4.97;;;4.03;;
41219;SDS011;26951;47.338;9.196;2023-03-20T05:18:17;3.47;;;3.17;;
41219;SDS011;26951;47.338;9.196;2023-03-20T05:21:01;5.15;;;3.38;;
41219;SDS011;26951;47.338;9.196;2023-03-20T05:23:46;3.55;;;3.08;;
41219;SDS011;26951;47.338;9.196;2023-03-20T05:26:31;3.78;;;3.28;;
41219;SDS011;26951;47.338;9.196;2023-03-20T05:29:15;3.47;;;2.85;;
41219;SDS011;26951;47.338;9.196;2023-03-20T05:31:59;3.65;;;3.10;;
41219;SDS011;26951;47.338;9.196;2023-03-20T05:34:44;3.47;;;3.17;;
41219;SDS011;26951;47.338;9.196;2023-03-20T05:37:29;2.97;;;2.67;;
41219;SDS011;26951;47.338;9.196;2023-03-20T05:40:13;2.92;;;2.58;;
41219;SDS011;26951;47.338;9.196;2023-03-20T05:42:59;3.08;;;2.53;;
41219;SDS011;26951;47.338;9.196;2023-03-20T05:45:43;3.33;;;3.03;;
41219;SDS011;26951;47.338;9.196;2023-03-20T05:48:27;3.35;;;2.63;;
41219;SDS011;26951;47.338;9.196;2023-03-20T05:51:11;2.63;;;2.42;;
41219;SDS011;26951;47.338;9.196;2023-03-20T05:53:56;3.20;;;2.47;;
41219;SDS011;26951;47.338;9.196;2023-03-20T05:56:40;3.13;;;2.78;;
41219;SDS011;26951;47.338;9.196;2023-03-20T05:59:24;3.92;;;3.00;;
41219;SDS011;26951;47.338;9.196;2023-03-20T06:02:09;2.97;;;2.67;;
41219;SDS011;26951;47.338;9.196;2023-03-20T06:04:53;3.47;;;2.97;;
41219;SDS011;26951;47.338;9.196;2023-03-20T06:07:37;4.07;;;3.40;;
41219;SDS011;26951;47.338;9.196;2023-03-20T06:10:22;4.03;;;2.90;;
41219;SDS011;26951;47.338;9.196;2023-03-20T06:13:06;2.70;;;2.50;;
41219;SDS011;26951;47.338;9.196;2023-03-20T06:15:50;2.78;;;2.50;;
41219;SDS011;26951;47.338;9.196;2023-03-20T06:18:34;3.33;;;2.60;;
41219;SDS011;26951;47.338;9.196;2023-03-20T06:21:18;3.08;;;2.78;;
41219;SDS011;26951;47.338;9.196;2023-03-20T06:24:03;3.33;;;2.78;;
41219;SDS011;26951;47.338;9.196;2023-03-20T06:26:47;3.78;;;3.00;;
41219;SDS011;26951;47.338;9.196;2023-03-20T06:29:31;4.68;;;3.67;;
41219;SDS011;26951;47.338;9.196;2023-03-20T06:32:16;4.50;;;3.25;;
41219;SDS011;26951;47.338;9.196;2023-03-20T06:35:00;3.55;;;3.20;;
41219;SDS011;26951;47.338;9.196;2023-03-20T06:37:44;3.33;;;2.95;;
41219;SDS011;26951;47.338;9.196;2023-03-20T06:40:28;6.20;;;4.43;;
41219;SDS011;26951;47.338;9.196;2023-03-20T06:43:12;3.55;;;3.10;;
41219;SDS011;26951;47.338;9.196;2023-03-20T06:45:56;4.80;;;2.95;;
41219;SDS011;26951;47.338;9.196;2023-03-20T06:48:41;4.63;;;3.47;;
41219;SDS011;26951;47.338;9.196;2023-03-20T06:51:24;3.90;;;3.50;;
41219;SDS011;26951;47.338;9.196;2023-03-20T06:54:09;4.25;;;3.30;;
41219;SDS011;26951;47.338;9.196;2023-03-20T06:56:54;4.65;;;3.47;;
41219;SDS011;26951;47.338;9.196;2023-03-20T06:59:38;4.53;;;3.58;;
41219;SDS011;26951;47.338;9.196;2023-03-20T07:02:22;4.30;;;3.80;;
41219;SDS011;26951;47.338;9.196;2023-03-20T07:05:06;5.38;;;4.22;;
41219;SDS011;26951;47.338;9.196;2023-03-20T07:07:51;5.77;;;4.37;;
41219;SDS011;26951;47.338;9.196;2023-03-20T07:10:35;5.35;;;4.28;;
41219;SDS011;26951;47.338;9.196;2023-03-20T07:13:20;5.15;;;4.22;;
41219;SDS011;26951;47.338;9.196;2023-03-20T07:16:04;4.95;;;4.05;;
41219;SDS011;26951;47.338;9.196;2023-03-20T07:18:49;6.60;;;4.75;;
41219;SDS011;26951;47.338;9.196;2023-03-20T07:21:33;5.22;;;4.30;;
41219;SDS011;26951;47.338;9.196;2023-03-20T07:24:17;4.85;;;4.10;;
41219;SDS011;26951;47.338;9.196;2023-03-20T07:27:02;5.63;;;4.18;;
41219;SDS011;26951;47.338;9.196;2023-03-20T07:29:46;5.72;;;4.63;;
41219;SDS011;26951;47.338;9.196;2023-03-20T07:32:30;5.00;;;4.00;;
41219;SDS011;26951;47.338;9.196;2023-03-20T07:35:15;11.70;;;7.67;;
41219;SDS011;26951;47.338;9.196;2023-03-20T07:37:59;5.28;;;4.78;;
41219;SDS011;26951;47.338;9.196;2023-03-20T07:40:43;4.65;;;3.55;;
41219;SDS011;26951;47.338;9.196;2023-03-20T07:43:27;4.05;;;3.42;;
41219;SDS011;26951;47.338;9.196;2023-03-20T07:46:11;6.25;;;3.30;;
41219;SDS011;26951;47.338;9.196;2023-03-20T07:48:56;4.28;;;3.38;;
41219;SDS011;26951;47.338;9.196;2023-03-20T07:51:40;4.97;;;3.75;;
41219;SDS011;26951;47.338;9.196;2023-03-20T07:54:24;3.25;;;2.85;;
41219;SDS011;26951;47.338;9.196;2023-03-20T07:57:08;4.35;;;3.03;;
41219;SDS011;26951;47.338;9.196;2023-03-20T07:59:53;3.60;;;3.00;;
41219;SDS011;26951;47.338;9.196;2023-03-20T08:02:37;3.65;;;3.22;;
41219;SDS011;26951;47.338;9.196;2023-03-20T08:05:21;4.70;;;3.38;;
41219;SDS011;26951;47.338;9.196;2023-03-20T08:08:05;4.35;;;3.33;;
41219;SDS011;26951;47.338;9.196;2023-03-20T08:10:49;5.10;;;3.80;;
41219;SDS011;26951;47.338;9.196;2023-03-20T08:13:34;5.18;;;3.60;;
41219;SDS011;26951;47.338;9.196;2023-03-20T08:16:18;3.85;;;3.00;;
41219;SDS011;26951;47.338;9.196;2023-03-20T08:19:03;4.07;;;3.05;;
41219;SDS011;26951;47.338;9.196;2023-03-20T08:21:48;2.80;;;2.53;;
41219;SDS011;26951;47.338;9.196;2023-03-20T08:24:34;2.95;;;2.63;;
41219;SDS011;26951;47.338;9.196;2023-03-20T08:27:18;3.67;;;3.08;;
41219;SDS011;26951;47.338;9.196;2023-03-20T08:30:03;3.83;;;3.05;;
41219;SDS011;26951;47.338;9.196;2023-03-20T08:32:48;3.30;;;2.90;;
41219;SDS011;26951;47.338;9.196;2023-03-20T08:35:32;3.58;;;3.15;;
41219;SDS011;26951;47.338;9.196;2023-03-20T08:38:16;4.47;;;2.25;;
41219;SDS011;26951;47.338;9.196;2023-03-20T08:41:01;3.10;;;2.40;;
41219;SDS011;26951;47.338;9.196;2023-03-20T08:43:44;3.08;;;2.47;;
41219;SDS011;26951;47.338;9.196;2023-03-20T08:46:29;3.17;;;2.80;;
41219;SDS011;26951;47.338;9.196;2023-03-20T08:49:14;3.65;;;2.65;;
41219;SDS011;26951;47.338;9.196;2023-03-20T08:51:58;2.45;;;2.17;;
41219;SDS011;26951;47.338;9.196;2023-03-20T08:54:43;2.58;;;2.33;;
41219;SDS011;26951;47.338;9.196;2023-03-20T08:57:27;2.92;;;2.63;;
41219;SDS011;26951;47.338;9.196;2023-03-20T09:00:12;3.53;;;2.70;;
41219;SDS011;26951;47.338;9.196;2023-03-20T09:02:58;3.28;;;2.22;;
41219;SDS011;26951;47.338;9.196;2023-03-20T09:05:42;3.08;;;2.35;;
41219;SDS011;26951;47.338;9.196;2023-03-20T09:08:27;2.55;;;2.15;;
41219;SDS011;26951;47.338;9.196;2023-03-20T09:11:11;3.55;;;2.92;;
41219;SDS011;26951;47.338;9.196;2023-03-20T09:13:55;2.28;;;2.00;;
41219;SDS011;26951;47.338;9.196;2023-03-20T09:16:39;2.28;;;2.03;;
41219;SDS011;26951;47.338;9.196;2023-03-20T09:19:24;2.47;;;2.28;;
41219;SDS011;26951;47.338;9.196;2023-03-20T09:22:12;1.73;;;1.50;;
41219;SDS011;26951;47.338;9.196;2023-03-20T09:24:58;2.53;;;1.77;;
41219;SDS011;26951;47.338;9.196;2023-03-20T09:27:42;2.95;;;1.83;;
41219;SDS011;26951;47.338;9.196;2023-03-20T09:30:26;2.10;;;1.52;;
41219;SDS011;26951;47.338;9.196;2023-03-20T09:33:10;2.85;;;2.17;;
41219;SDS011;26951;47.338;9.196;2023-03-20T09:35:57;3.20;;;1.80;;
41219;SDS011;26951;47.338;9.196;2023-03-20T09:38:41;1.70;;;1.60;;
41219;SDS011;26951;47.338;9.196;2023-03-20T09:41:26;1.83;;;1.60;;
41219;SDS011;26951;47.338;9.196;2023-03-20T09:44:13;2.10;;;1.80;;
41219;SDS011;26951;47.338;9.196;2023-03-20T09:47:15;2.13;;;1.80;;
41219;SDS011;26951;47.338;9.196;2023-03-20T09:50:16;1.55;;;1.40;;
41219;SDS011;26951;47.338;9.196;2023-03-20T09:53:13;2.25;;;1.50;;
41219;SDS011;26951;47.338;9.196;2023-03-20T09:56:10;1.63;;;1.38;;
41219;SDS011;26951;47.338;9.196;2023-03-20T09:59:00;1.58;;;1.48;;
41219;SDS011;26951;47.338;9.196;2023-03-20T10:01:54;2.08;;;1.50;;
41219;SDS011;26951;47.338;9.196;2023-03-20T10:04:41;1.70;;;1.52;;
41219;SDS011;26951;47.338;9.196;2023-03-20T10:07:29;1.52;;;1.42;;
41219;SDS011;26951;47.338;9.196;2023-03-20T10:10:13;1.70;;;1.60;;
41219;SDS011;26951;47.338;9.196;2023-03-20T10:13:12;2.50;;;1.77;;
41219;SDS011;26951;47.338;9.196;2023-03-20T10:19:29;2.03;;;1.83;;
41219;SDS011;26951;47.338;9.196;2023-03-20T10:22:35;1.42;;;1.33;;
41219;SDS011;26951;47.338;9.196;2023-03-20T10:25:36;2.25;;;1.80;;
41219;SDS011;26951;47.338;9.196;2023-03-20T10:28:28;2.17;;;1.73;;
41219;SDS011;26951;47.338;9.196;2023-03-20T10:31:44;1.42;;;1.33;;
41219;SDS011;26951;47.338;9.196;2023-03-20T10:37:26;1.50;;;1.40;;
41219;SDS011;26951;47.338;9.196;2023-03-20T10:40:21;1.73;;;1.60;;
41219;SDS011;26951;47.338;9.196;2023-03-20T10:46:42;3.78;;;1.60;;
41219;SDS011;26951;47.338;9.196;2023-03-20T10:49:18;2.35;;;1.80;;
41219;SDS011;26951;47.338;9.196;2023-03-20T10:52:23;1.73;;;1.50;;
41219;SDS011;26951;47.338;9.196;2023-03-20T10:55:13;2.00;;;1.55;;
41219;SDS011;26951;47.338;9.196;2023-03-20T10:58:02;1.70;;;1.60;;
41219;SDS011;26951;47.338;9.196;2023-03-20T11:00:57;2.95;;;1.80;;
41219;SDS011;26951;47.338;9.196;2023-03-20T11:03:42;1.73;;;1.63;;
41219;SDS011;26951;47.338;9.196;2023-03-20T11:06:27;1.75;;;1.55;;
41219;SDS011;26951;47.338;9.196;2023-03-20T11:09:20;1.90;;;1.55;;
41219;SDS011;26951;47.338;9.196;2023-03-20T11:12:12;1.80;;;1.48;;
41219;SDS011;26951;47.338;9.196;2023-03-20T11:15:03;1.90;;;1.55;;
41219;SDS011;26951;47.338;9.196;2023-03-20T11:17:58;3.03;;;2.35;;
41219;SDS011;26951;47.338;9.196;2023-03-20T11:20:45;2.28;;;1.45;;
41219;SDS011;26951;47.338;9.196;2023-03-20T11:23:33;1.70;;;1.60;;
41219;SDS011;26951;47.338;9.196;2023-03-20T11:26:19;2.00;;;1.70;;
41219;SDS011;26951;47.338;9.196;2023-03-20T11:29:28;1.63;;;1.40;;
41219;SDS011;26951;47.338;9.196;2023-03-20T11:38:13;3.20;;;1.70;;
41219;SDS011;26951;47.338;9.196;2023-03-20T11:40:59;2.58;;;1.80;;
41219;SDS011;26951;47.338;9.196;2023-03-20T11:43:47;3.17;;;1.80;;
41219;SDS011;26951;47.338;9.196;2023-03-20T11:46:31;1.80;;;1.70;;
41219;SDS011;26951;47.338;9.196;2023-03-20T11:49:19;2.75;;;2.10;;
41219;SDS011;26951;47.338;9.196;2023-03-20T11:52:11;2.25;;;1.73;;
41219;SDS011;26951;47.338;9.196;2023-03-20T11:54:59;2.45;;;1.85;;
41219;SDS011;26951;47.338;9.196;2023-03-20T11:57:45;2.50;;;1.65;;
41219;SDS011;26951;47.338;9.196;2023-03-20T12:06:40;1.50;;;1.40;;
41219;SDS011;26951;47.338;9.196;2023-03-20T12:09:51;1.98;;;1.63;;
41219;SDS011;26951;47.338;9.196;2023-03-20T12:12:44;1.70;;;1.60;;
41219;SDS011;26951;47.338;9.196;2023-03-20T12:15:37;1.35;;;1.25;;
41219;SDS011;26951;47.338;9.196;2023-03-20T12:18:40;2.03;;;1.58;;
41219;SDS011;26951;47.338;9.196;2023-03-20T12:21:31;2.45;;;1.77;;
41219;SDS011;26951;47.338;9.196;2023-03-20T12:24:32;2.45;;;1.90;;
41219;SDS011;26951;47.338;9.196;2023-03-20T12:27:26;2.33;;;1.73;;
41219;SDS011;26951;47.338;9.196;2023-03-20T12:30:31;2.95;;;1.60;;
41219;SDS011;26951;47.338;9.196;2023-03-20T12:33:44;1.95;;;1.70;;
41219;SDS011;26951;47.338;9.196;2023-03-20T12:36:36;1.83;;;1.65;;
41219;SDS011;26951;47.338;9.196;2023-03-20T12:39:25;2.83;;;1.38;;
41219;SDS011;26951;47.338;9.196;2023-03-20T12:45:38;2.05;;;1.70;;
41219;SDS011;26951;47.338;9.196;2023-03-20T12:48:44;2.55;;;1.80;;
41219;SDS011;26951;47.338;9.196;2023-03-20T12:51:45;1.80;;;1.60;;
41219;SDS011;26951;47.338;9.196;2023-03-20T12:57:36;1.77;;;1.60;;
41219;SDS011;26951;47.338;9.196;2023-03-20T13:09:31;2.33;;;1.52;;
41219;SDS011;26951;47.338;9.196;2023-03-20T13:15:30;2.55;;;2.28;;
41219;SDS011;26951;47.338;9.196;2023-03-20T13:21:44;3.13;;;1.98;;
41219;SDS011;26951;47.338;9.196;2023-03-20T13:24:49;3.13;;;2.00;;
41219;SDS011;26951;47.338;9.196;2023-03-20T13:27:47;3.05;;;2.38;;
41219;SDS011;26951;47.338;9.196;2023-03-20T13:30:44;3.38;;;2.50;;
41219;SDS011;26951;47.338;9.196;2023-03-20T13:33:49;2.65;;;2.40;;
41219;SDS011;26951;47.338;9.196;2023-03-20T13:46:21;3.13;;;2.00;;
41219;SDS011;26951;47.338;9.196;2023-03-20T13:49:13;2.25;;;1.80;;
41219;SDS011;26951;47.338;9.196;2023-03-20T13:55:13;2.08;;;1.80;;
41219;SDS011;26951;47.338;9.196;2023-03-20T13:58:13;2.20;;;2.00;;
41219;SDS011;26951;47.338;9.196;2023-03-20T14:01:15;2.80;;;1.80;;
41219;SDS011;26951;47.338;9.196;2023-03-20T14:04:15;2.13;;;1.60;;
41219;SDS011;26951;47.338;9.196;2023-03-20T14:07:24;2.80;;;2.20;;
41219;SDS011;26951;47.338;9.196;2023-03-20T14:13:10;2.15;;;1.95;;
41219;SDS011;26951;47.338;9.196;2023-03-20T14:15:57;2.67;;;2.30;;
41219;SDS011;26951;47.338;9.196;2023-03-20T14:18:48;2.47;;;2.15;;
41219;SDS011;26951;47.338;9.196;2023-03-20T14:21:47;2.42;;;2.20;;
41219;SDS011;26951;47.338;9.196;2023-03-20T14:24:35;2.90;;;2.60;;
41219;SDS011;26951;47.338;9.196;2023-03-20T14:27:21;2.88;;;2.08;;
41219;SDS011;26951;47.338;9.196;2023-03-20T14:39:09;2.15;;;1.95;;
41219;SDS011;26951;47.338;9.196;2023-03-20T14:48:24;1.88;;;1.75;;
41219;SDS011;26951;47.338;9.196;2023-03-20T14:51:29;2.88;;;2.15;;
41219;SDS011;26951;47.338;9.196;2023-03-20T14:54:26;3.50;;;2.00;;
41219;SDS011;26951;47.338;9.196;2023-03-20T14:57:16;2.72;;;2.17;;
41219;SDS011;26951;47.338;9.196;2023-03-20T15:00:18;2.00;;;1.58;;
41219;SDS011;26951;47.338;9.196;2023-03-20T15:03:13;2.60;;;2.10;;
41219;SDS011;26951;47.338;9.196;2023-03-20T15:06:00;1.85;;;1.67;;
41219;SDS011;26951;47.338;9.196;2023-03-20T15:08:50;2.25;;;2.03;;
41219;SDS011;26951;47.338;9.196;2023-03-20T15:11:36;2.28;;;1.80;;
41219;SDS011;26951;47.338;9.196;2023-03-20T15:14:24;2.08;;;1.70;;
41219;SDS011;26951;47.338;9.196;2023-03-20T15:17:20;3.47;;;2.15;;
41219;SDS011;26951;47.338;9.196;2023-03-20T15:22:59;2.95;;;2.30;;
41219;SDS011;26951;47.338;9.196;2023-03-20T15:25:44;2.10;;;1.80;;
41219;SDS011;26951;47.338;9.196;2023-03-20T15:28:30;2.60;;;1.83;;
41219;SDS011;26951;47.338;9.196;2023-03-20T15:31:20;2.85;;;2.03;;
41219;SDS011;26951;47.338;9.196;2023-03-20T15:34:08;2.40;;;2.20;;
41219;SDS011;26951;47.338;9.196;2023-03-20T15:37:00;2.15;;;1.95;;
41219;SDS011;26951;47.338;9.196;2023-03-20T15:39:47;2.08;;;1.92;;
41219;SDS011;26951;47.338;9.196;2023-03-20T15:42:34;2.03;;;1.65;;
41219;SDS011;26951;47.338;9.196;2023-03-20T15:45:29;2.72;;;2.30;;
41219;SDS011;26951;47.338;9.196;2023-03-20T15:48:17;2.28;;;2.08;;
41219;SDS011;26951;47.338;9.196;2023-03-20T15:51:02;2.10;;;1.85;;
41219;SDS011;26951;47.338;9.196;2023-03-20T15:53:48;2.17;;;1.85;;
41219;SDS011;26951;47.338;9.196;2023-03-20T15:56:32;2.08;;;1.88;;
41219;SDS011;26951;47.338;9.196;2023-03-20T15:59:20;2.40;;;2.10;;
41219;SDS011;26951;47.338;9.196;2023-03-20T16:02:08;2.67;;;1.73;;
41219;SDS011;26951;47.338;9.196;2023-03-20T16:04:55;2.38;;;2.15;;
41219;SDS011;26951;47.338;9.196;2023-03-20T16:07:39;2.40;;;2.13;;
41219;SDS011;26951;47.338;9.196;2023-03-20T16:10:29;1.95;;;1.77;;
41219;SDS011;26951;47.338;9.196;2023-03-20T16:13:18;2.20;;;2.00;;
41219;SDS011;26951;47.338;9.196;2023-03-20T16:16:07;2.72;;;2.35;;
41219;SDS011;26951;47.338;9.196;2023-03-20T16:18:55;2.45;;;2.25;;
41219;SDS011;26951;47.338;9.196;2023-03-20T16:21:41;2.33;;;2.13;;
41219;SDS011;26951;47.338;9.196;2023-03-20T16:24:35;2.83;;;2.50;;
41219;SDS011;26951;47.338;9.196;2023-03-20T16:27:22;4.03;;;2.38;;
41219;SDS011;26951;47.338;9.196;2023-03-20T16:30:14;4.03;;;2.40;;
41219;SDS011;26951;47.338;9.196;2023-03-20T16:33:04;2.17;;;1.98;;
41219;SDS011;26951;47.338;9.196;2023-03-20T16:35:53;3.25;;;2.38;;
41219;SDS011;26951;47.338;9.196;2023-03-20T16:38:38;2.97;;;2.67;;
41219;SDS011;26951;47.338;9.196;2023-03-20T16:44:13;2.75;;;2.13;;
41219;SDS011;26951;47.338;9.196;2023-03-20T16:52:40;3.03;;;2.42;;
41219;SDS011;26951;47.338;9.196;2023-03-20T16:55:29;2.90;;;2.60;;
41219;SDS011;26951;47.338;9.196;2023-03-20T16:58:27;3.65;;;2.80;;
41219;SDS011;26951;47.338;9.196;2023-03-20T17:01:15;4.10;;;2.50;;
41219;SDS011;26951;47.338;9.196;2023-03-20T17:04:17;2.20;;;2.00;;
41219;SDS011;26951;47.338;9.196;2023-03-20T17:07:14;2.67;;;2.38;;
41219;SDS011;26951;47.338;9.196;2023-03-20T17:10:16;3.13;;;2.10;;
41219;SDS011;26951;47.338;9.196;2023-03-20T17:13:02;2.53;;;2.33;;
41219;SDS011;26951;47.338;9.196;2023-03-20T17:15:47;3.50;;;2.30;;
41219;SDS011;26951;47.338;9.196;2023-03-20T17:18:32;2.17;;;1.92;;
41219;SDS011;26951;47.338;9.196;2023-03-20T17:24:02;2.40;;;2.00;;
41219;SDS011;26951;47.338;9.196;2023-03-20T17:26:49;3.00;;;2.08;;
41219;SDS011;26951;47.338;9.196;2023-03-20T17:29:36;1.90;;;1.80;;
41219;SDS011;26951;47.338;9.196;2023-03-20T17:32:21;2.08;;;1.80;;
41219;SDS011;26951;47.338;9.196;2023-03-20T17:35:08;2.70;;;2.08;;
41219;SDS011;26951;47.338;9.196;2023-03-20T17:37:52;2.20;;;2.00;;
41219;SDS011;26951;47.338;9.196;2023-03-20T17:40:37;3.15;;;2.22;;
41219;SDS011;26951;47.338;9.196;2023-03-20T17:43:21;2.72;;;2.30;;
41219;SDS011;26951;47.338;9.196;2023-03-20T17:46:05;4.78;;;2.42;;
41219;SDS011;26951;47.338;9.196;2023-03-20T17:48:50;3.55;;;2.22;;
41219;SDS011;26951;47.338;9.196;2023-03-20T17:51:40;2.85;;;2.25;;
41219;SDS011;26951;47.338;9.196;2023-03-20T17:54:25;2.45;;;1.95;;
41219;SDS011;26951;47.338;9.196;2023-03-20T17:57:11;3.15;;;1.85;;
41219;SDS011;26951;47.338;9.196;2023-03-20T18:00:08;4.38;;;2.05;;
41219;SDS011;26951;47.338;9.196;2023-03-20T18:02:56;3.22;;;2.30;;
41219;SDS011;26951;47.338;9.196;2023-03-20T18:05:41;2.50;;;2.30;;
41219;SDS011;26951;47.338;9.196;2023-03-20T18:08:25;5.85;;;2.20;;
41219;SDS011;26951;47.338;9.196;2023-03-20T18:11:09;2.92;;;2.60;;
41219;SDS011;26951;47.338;9.196;2023-03-20T18:13:54;7.18;;;4.93;;
41219;SDS011;26951;47.338;9.196;2023-03-20T18:16:38;7.18;;;5.68;;
41219;SDS011;26951;47.338;9.196;2023-03-20T18:19:23;8.15;;;5.93;;
41219;SDS011;26951;47.338;9.196;2023-03-20T18:22:10;10.60;;;7.50;;
41219;SDS011;26951;47.338;9.196;2023-03-20T18:24:55;7.88;;;5.53;;
41219;SDS011;26951;47.338;9.196;2023-03-20T18:27:39;7.32;;;5.35;;
41219;SDS011;26951;47.338;9.196;2023-03-20T18:33:12;6.00;;;4.50;;
41219;SDS011;26951;47.338;9.196;2023-03-20T18:35:56;6.55;;;5.75;;
41219;SDS011;26951;47.338;9.196;2023-03-20T18:38:40;10.32;;;8.00;;
41219;SDS011;26951;47.338;9.196;2023-03-20T18:41:24;8.15;;;5.72;;
41219;SDS011;26951;47.338;9.196;2023-03-20T18:44:08;9.77;;;8.18;;
41219;SDS011;26951;47.338;9.196;2023-03-20T18:46:52;7.32;;;5.32;;
41219;SDS011;26951;47.338;9.196;2023-03-20T18:49:37;5.85;;;4.95;;
41219;SDS011;26951;47.338;9.196;2023-03-20T18:52:21;7.97;;;6.22;;
41219;SDS011;26951;47.338;9.196;2023-03-20T18:55:05;5.28;;;4.78;;
41219;SDS011;26951;47.338;9.196;2023-03-20T18:57:49;3.97;;;3.30;;
41219;SDS011;26951;47.338;9.196;2023-03-20T19:00:35;4.07;;;3.15;;
41219;SDS011;26951;47.338;9.196;2023-03-20T19:03:22;3.50;;;3.20;;